Time;durP1;ratioP1;P1;durP2;ratioP2;P2;SDS_P1;SDS_P2;PMS_P1;PMS_P2;Temp;Humidity;BMP_temperature;BMP_pressure;BME280_temperature;BME280_humidity;BME280_pressure;Samples;Min_cycle;Max_cycle;Signal;HPM_P1;HPM_P2
2022/01/16 00:00:40;;;;;;;;;;;;;;;;;;5090992;28;1275;-79
2022/01/16 00:05:54;;;;;;;;;;;;;;;;;;5116045;27;1020;-79
2022/01/16 00:08:19;;;;;;;;;;;;;;;;;;5091708;28;1234;-78
2022/01/16 00:10:45;;;;;;;;;;;;;;;;;;5108561;28;1195;-79
2022/01/16 00:13:10;;;;;;;;;;;;;;;;;;5091303;28;1152;-79
2022/01/16 00:15:35;;;;;;;;;;;;;;;;;;5091937;28;1168;-79
2022/01/16 00:18:19;;;;;;;;;;;;;;;;;;5106541;27;1185;-80
2022/01/16 00:20:44;;;;;;;;;;;;;;;;;;5096116;27;1332;-79
2022/01/16 00:23:10;;;;;;;;;;;;;;;;;;5130288;27;1893;-78
2022/01/16 00:25:36;;;;;;;;;;;;;;;;;;5085491;28;1212;-79
2022/01/16 00:28:01;;;;;;;;;;;;;;;;;;5108921;28;1266;-79
2022/01/16 00:30:26;;;;;;;;;;;;;;;;;;5092317;28;1192;-79
2022/01/16 00:32:59;;;;;;;;;;;;;;;;;;5088636;28;1231;-79
2022/01/16 00:35:24;;;;;;;;;;;;;;;;;;5089927;28;1257;-79
2022/01/16 00:37:53;;;;;;;;;;;;;;;;;;5111575;28;1155;-79
2022/01/16 00:40:18;;;;;;;;;;;;;;;;;;5075576;28;1254;-79
2022/01/16 00:42:44;;;;;;;;;;;;;;;;;;5116944;27;1902;-79
2022/01/16 00:45:09;;;;;;;;;;;;;;;;;;5111369;27;1250;-79
2022/01/16 00:47:34;;;;;;;;;;;;;;;;;;5115181;27;1226;-79
2022/01/16 00:49:59;;;;;;;;;;;;;;;;;;5117874;27;1227;-79
2022/01/16 00:52:28;;;;;;;;;;;;;;;;;;5118146;27;1166;-79
2022/01/16 00:55:02;;;;;;;;;;;;;;;;;;5088968;27;1167;-79
2022/01/16 00:57:27;;;;;;;;;;;;;;;;;;5122575;27;1171;-79
2022/01/16 01:00:02;;;;;;;;;;;;;;;;;;5094835;27;1325;-78
2022/01/16 01:02:28;;;;;;;;;;;;;;;;;;5109886;27;2249;-79
2022/01/16 01:04:58;;;;;;;;;;;;;;;;;;5100638;28;1187;-79
2022/01/16 01:07:24;;;;;;;;;;;;;;;;;;5093279;28;1414;-79
2022/01/16 01:09:49;;;;;;;;;;;;;;;;;;5093566;28;1116;-79
2022/01/16 01:12:25;;;;;;;;;;;;;;;;;;5075002;28;1284;-79
2022/01/16 01:15:09;;;;;;;;;;;;;;;;;;5076959;28;1184;-79
2022/01/16 01:17:46;;;;;;;;;;;;;;;;;;5090629;28;1242;-79
2022/01/16 01:20:15;;;;;;;;;;;;;;;;;;5125541;27;1111;-79
2022/01/16 01:22:40;;;;;;;;;;;;;;;;;;5130842;27;1934;-79
2022/01/16 01:25:06;;;;;;;;;;;;;;;;;;5110511;27;1290;-78
2022/01/16 01:27:33;;;;;;;;;;;;;;;;;;5114156;27;1188;-78
2022/01/16 01:30:06;;;;;;;;;;;;;;;;;;5110679;27;1176;-78
2022/01/16 01:32:33;;;;;;;;;;;;;;;;;;5126205;27;1036;-78
2022/01/16 01:35:01;;;;;;;;;;;;;;;;;;5102839;27;1377;-77
2022/01/16 01:37:27;;;;;;;;;;;;;;;;;;5109784;27;1162;-78
2022/01/16 01:39:52;;;;;;;;;;;;;;;;;;5109941;27;1199;-77
2022/01/16 01:42:17;;;;;;;;;;;;;;;;;;5108702;27;1968;-77
2022/01/16 01:53:05;;;;;;;;;;;;;;;;;;5091357;28;1012;-78
2022/01/16 01:55:31;;;;;;;;;;;;;;;;;;5090283;28;1191;-79
2022/01/16 01:58:02;;;;;;;;;;;;;;;;;;5114405;27;1223;-79
2022/01/16 02:00:27;;;;;;;;;;;;;;;;;;5091488;27;1299;-79
2022/01/16 02:03:10;;;;;;;;;;;;;;;;;;5106667;27;1885;-79
2022/01/16 02:05:36;;;;;;;;;;;;;;;;;;5123992;27;980;-79
2022/01/16 02:08:05;;;;;;;;;;;;;;;;;;5127415;27;1152;-79
2022/01/16 02:10:30;;;;;;;;;;;;;;;;;;5110243;27;1313;-79
2022/01/16 02:13:00;;;;;;;;;;;;;;;;;;5093685;28;1159;-79
2022/01/16 02:31:45;;;;;;;;;;;;;;;;;;5116612;27;1035;-79
2022/01/16 02:34:32;;;;;;;;;;;;;;;;;;5085498;28;1144;-79
2022/01/16 02:37:10;;;;;;;;;;;;;;;;;;5088589;28;1351;-79
2022/01/16 02:39:37;;;;;;;;;;;;;;;;;;5107288;28;1044;-79
2022/01/16 02:42:06;;;;;;;;;;;;;;;;;;5107346;28;1921;-79
2022/01/16 02:44:43;;;;;;;;;;;;;;;;;;5088044;28;1131;-79
2022/01/16 02:47:13;;;;;;;;;;;;;;;;;;5076530;27;1345;-79
2022/01/16 02:49:44;;;;;;;;;;;;;;;;;;5106309;27;1203;-79
2022/01/16 02:52:10;;;;;;;;;;;;;;;;;;5089282;28;1643;-79
2022/01/16 02:54:38;;;;;;;;;;;;;;;;;;5088072;28;1582;-79
2022/01/16 02:57:07;;;;;;;;;;;;;;;;;;5088248;28;1215;-79
2022/01/16 02:59:36;;;;;;;;;;;;;;;;;;5105848;27;1124;-79
2022/01/16 03:02:08;;;;;;;;;;;;;;;;;;5095994;27;1897;-79
2022/01/16 03:04:36;;;;;;;;;;;;;;;;;;5089679;28;1328;-78
2022/01/16 03:07:06;;;;;;;;;;;;;;;;;;5126531;28;1151;-79
2022/01/16 03:09:53;;;;;;;;;;;;;;;;;;5100254;28;1304;-79
2022/01/16 03:12:17;;;;;;;;;;;;;;;;;;5124959;28;1128;-79
2022/01/16 03:14:42;;;;;;;;;;;;;;;;;;5075297;28;1258;-79
2022/01/16 03:17:09;;;;;;;;;;;;;;;;;;5083831;28;1293;-79
2022/01/16 03:22:18;;;;;;;;;;;;;;;;;;5102745;28;1906;-79
2022/01/16 03:24:44;;;;;;;;;;;;;;;;;;5106726;28;1393;-79
2022/01/16 03:27:14;;;;;;;;;;;;;;;;;;5103722;28;1164;-79
2022/01/16 03:29:41;;;;;;;;;;;;;;;;;;5089954;28;1263;-79
2022/01/16 03:32:11;;;;;;;;;;;;;;;;;;5123419;28;1202;-79
2022/01/16 03:34:37;;;;;;;;;;;;;;;;;;5101011;28;1184;-79
2022/01/16 03:37:03;;;;;;;;;;;;;;;;;;5104845;28;1279;-79
2022/01/16 03:39:28;;;;;;;;;;;;;;;;;;5105829;28;1116;-79
2022/01/16 03:41:55;;;;;;;;;;;;;;;;;;5089412;28;1918;-79
2022/01/16 03:44:21;;;;;;;;;;;;;;;;;;5096070;27;1195;-79
2022/01/16 03:46:46;;;;;;;;;;;;;;;;;;5108548;27;1348;-79
2022/01/16 03:49:17;;;;;;;;;;;;;;;;;;5100139;28;1334;-79
2022/01/16 03:51:43;;;;;;;;;;;;;;;;;;5089988;28;1332;-79
2022/01/16 03:54:13;;;;;;;;;;;;;;;;;;5106027;27;1418;-79
2022/01/16 03:56:38;;;;;;;;;;;;;;;;;;5110338;27;1415;-78
2022/01/16 03:59:04;;;;;;;;;;;;;;;;;;5093576;27;1231;-79
2022/01/16 04:01:29;;;;;;;;;;;;;;;;;;5107272;27;1343;-78
2022/01/16 04:03:55;;;;;;;;;;;;;;;;;;5107945;27;1964;-78
2022/01/16 04:06:21;;;;;;;;;;;;;;;;;;5109597;27;1248;-79
2022/01/16 04:08:50;;;;;;;;;;;;;;;;;;5110639;27;1529;-79
2022/01/16 04:11:16;;;;;;;;;;;;;;;;;;5092848;27;1166;-78
2022/01/16 04:13:49;;;;;;;;;;;;;;;;;;5072703;28;1160;-78
2022/01/16 04:16:15;;;;;;;;;;;;;;;;;;5086772;28;1301;-78
2022/01/16 04:18:40;;;;;;;;;;;;;;;;;;5106502;28;1096;-79
2022/01/16 04:21:06;;;;;;;;;;;;;;;;;;5126464;27;1151;-78
2022/01/16 04:23:34;;;;;;;;;;;;;;;;;;5095264;28;1894;-77
2022/01/16 04:25:59;;;;;;;;;;;;;;;;;;5089481;28;1226;-78
2022/01/16 04:28:25;;;;;;;;;;;;;;;;;;5108013;28;1448;-79
2022/01/16 04:30:53;;;;;;;;;;;;;;;;;;5072329;28;1207;-78
2022/01/16 04:33:29;;;;;;;;;;;;;;;;;;5088705;28;1159;-80
2022/01/16 04:35:54;;;;;;;;;;;;;;;;;;5103604;27;1168;-79
2022/01/16 04:38:19;;;;;;;;;;;;;;;;;;5089342;28;1295;-79
2022/01/16 04:43:47;;;;;;;;;;;;;;;;;;5074438;28;1227;-78
2022/01/16 04:43:48;;;;;;;;;;;;;;;;;;5102418;27;1906;-79
2022/01/16 04:46:18;;;;;;;;;;;;;;;;;;5093036;27;1280;-79
2022/01/16 04:48:43;;;;;;;;;;;;;;;;;;5103136;28;1159;-77
2022/01/16 04:51:09;;;;;;;;;;;;;;;;;;5090652;28;1224;-78
2022/01/16 04:53:35;;;;;;;;;;;;;;;;;;5088114;28;1415;-79
2022/01/16 04:56:00;;;;;;;;;;;;;;;;;;5104782;27;1178;-78
2022/01/16 04:58:25;;;;;;;;;;;;;;;;;;5110003;27;1247;-79
2022/01/16 05:00:54;;;;;;;;;;;;;;;;;;5089061;28;1517;-78
2022/01/16 05:03:29;;;;;;;;;;;;;;;;;;5107629;27;1922;-79
2022/01/16 05:05:55;;;;;;;;;;;;;;;;;;5089883;28;1164;-78
2022/01/16 05:08:24;;;;;;;;;;;;;;;;;;5088375;28;1282;-78
2022/01/16 05:10:55;;;;;;;;;;;;;;;;;;5103058;27;1258;-78
2022/01/16 05:18:41;;;;;;;;;;;;;;;;;;5107090;27;1008;-78
2022/01/16 05:21:07;;;;;;;;;;;;;;;;;;5088980;28;1285;-78
2022/01/16 05:23:32;;;;;;;;;;;;;;;;;;5088055;28;1947;-78
2022/01/16 05:25:59;;;;;;;;;;;;;;;;;;5107514;28;1230;-78
2022/01/16 05:28:24;;;;;;;;;;;;;;;;;;5075448;27;1454;-78
2022/01/16 05:30:52;;;;;;;;;;;;;;;;;;5108215;27;1215;-78
2022/01/16 05:33:27;;;;;;;;;;;;;;;;;;5077332;28;1172;-79
2022/01/16 05:35:52;;;;;;;;;;;;;;;;;;5107959;28;1167;-78
2022/01/16 05:38:24;;;;;;;;;;;;;;;;;;5088798;28;1203;-78
2022/01/16 05:40:49;;;;;;;;;;;;;;;;;;5106917;27;1156;-78
2022/01/16 05:43:14;;;;;;;;;;;;;;;;;;5109305;27;1902;-78
2022/01/16 05:45:40;;;;;;;;;;;;;;;;;;5125864;27;1202;-78
2022/01/16 05:48:05;;;;;;;;;;;;;;;;;;5124964;27;1142;-78
2022/01/16 05:50:33;;;;;;;;;;;;;;;;;;5106300;27;1255;-78
2022/01/16 05:53:02;;;;;;;;;;;;;;;;;;5108762;27;1406;-79
2022/01/16 05:55:31;;;;;;;;;;;;;;;;;;5126952;27;1048;-78
2022/01/16 05:57:57;;;;;;;;;;;;;;;;;;5083837;28;1226;-79
2022/01/16 06:00:25;;;;;;;;;;;;;;;;;;5088445;28;1248;-79
2022/01/16 06:02:53;;;;;;;;;;;;;;;;;;5090250;27;1964;-79
2022/01/16 06:05:18;;;;;;;;;;;;;;;;;;5090357;27;1501;-76
2022/01/16 06:07:52;;;;;;;;;;;;;;;;;;5092633;27;1291;-78
2022/01/16 06:10:18;;;;;;;;;;;;;;;;;;5111419;27;1221;-79
2022/01/16 06:12:43;;;;;;;;;;;;;;;;;;5108274;27;1185;-79
2022/01/16 06:15:08;;;;;;;;;;;;;;;;;;5111196;27;1136;-78
2022/01/16 06:17:34;;;;;;;;;;;;;;;;;;5085951;28;1236;-79
2022/01/16 06:19:59;;;;;;;;;;;;;;;;;;5087364;28;1223;-79
2022/01/16 06:22:27;;;;;;;;;;;;;;;;;;5088711;28;1894;-78
2022/01/16 06:24:52;;;;;;;;;;;;;;;;;;5094885;27;1160;-78
2022/01/16 06:27:18;;;;;;;;;;;;;;;;;;5112531;27;1398;-78
2022/01/16 06:29:43;;;;;;;;;;;;;;;;;;5092189;27;1117;-78
2022/01/16 06:32:08;;;;;;;;;;;;;;;;;;5125335;27;1219;-78
2022/01/16 06:34:33;;;;;;;;;;;;;;;;;;5109316;27;1140;-77
2022/01/16 06:36:59;;;;;;;;;;;;;;;;;;5084402;27;1161;-78
2022/01/16 06:39:29;;;;;;;;;;;;;;;;;;5103244;27;1162;-77
2022/01/16 06:41:54;;;;;;;;;;;;;;;;;;5092395;27;1321;-78
2022/01/16 06:44:20;;;;;;;;;;;;;;;;;;5108189;27;1913;-78
2022/01/16 06:46:46;;;;;;;;;;;;;;;;;;5087994;27;1340;-78
2022/01/16 06:49:12;;;;;;;;;;;;;;;;;;5124667;27;1225;-78
2022/01/16 06:51:37;;;;;;;;;;;;;;;;;;5089138;27;1225;-79
2022/01/16 06:54:03;;;;;;;;;;;;;;;;;;5111683;27;1246;-78
2022/01/16 06:56:31;;;;;;;;;;;;;;;;;;5069394;28;1429;-78
2022/01/16 06:58:57;;;;;;;;;;;;;;;;;;5097408;28;1154;-78
2022/01/16 07:01:23;;;;;;;;;;;;;;;;;;5106547;27;1158;-78
2022/01/16 07:03:51;;;;;;;;;;;;;;;;;;5088736;28;1886;-79
2022/01/16 07:06:16;;;;;;;;;;;;;;;;;;5071619;28;1148;-78
2022/01/16 07:08:41;;;;;;;;;;;;;;;;;;5103647;28;1234;-78
2022/01/16 07:11:07;;;;;;;;;;;;;;;;;;5106401;28;1286;-78
2022/01/16 07:13:32;;;;;;;;;;;;;;;;;;5104171;28;1182;-78
2022/01/16 07:15:58;;;;;;;;;;;;;;;;;;5084339;28;1343;-78
2022/01/16 07:18:23;;;;;;;;;;;;;;;;;;5092776;28;1291;-78
2022/01/16 07:20:49;;;;;;;;;;;;;;;;;;5111557;28;1353;-78
2022/01/16 07:23:15;;;;;;;;;;;;;;;;;;5091699;28;1893;-78
2022/01/16 07:25:41;;;;;;;;;;;;;;;;;;5071994;28;1233;-78
2022/01/16 07:28:07;;;;;;;;;;;;;;;;;;5087594;28;1416;-78
2022/01/16 07:30:32;;;;;;;;;;;;;;;;;;5088072;28;1143;-77
2022/01/16 07:32:58;;;;;;;;;;;;;;;;;;5084945;28;1238;-78
2022/01/16 07:35:23;;;;;;;;;;;;;;;;;;5086227;28;1095;-79
2022/01/16 07:37:49;;;;;;;;;;;;;;;;;;5086279;28;1264;-78
2022/01/16 07:40:15;;;;;;;;;;;;;;;;;;5087184;28;1265;-78
2022/01/16 07:42:40;;;;;;;;;;;;;;;;;;5085628;28;1910;-78
2022/01/16 07:45:08;;;;;;;;;;;;;;;;;;5089370;28;1252;-78
2022/01/16 07:47:37;;;;;;;;;;;;;;;;;;5066976;28;1187;-77
2022/01/16 07:50:02;;;;;;;;;;;;;;;;;;5086925;28;1172;-78
2022/01/16 07:52:27;;;;;;;;;;;;;;;;;;5077496;28;1179;-77
2022/01/16 07:54:53;;;;;;;;;;;;;;;;;;5090319;28;1175;-77
2022/01/16 07:57:18;;;;;;;;;;;;;;;;;;5109331;28;1103;-78
2022/01/16 07:59:43;;;;;;;;;;;;;;;;;;5089884;28;1193;-78
2022/01/16 08:02:09;;;;;;;;;;;;;;;;;;5089793;28;1901;-78
2022/01/16 08:04:37;;;;;;;;;;;;;;;;;;5102367;28;1291;-78
2022/01/16 08:07:03;;;;;;;;;;;;;;;;;;5107835;28;1257;-78
2022/01/16 08:09:29;;;;;;;;;;;;;;;;;;5108175;28;1189;-78
2022/01/16 08:11:54;;;;;;;;;;;;;;;;;;5105928;28;1118;-78
2022/01/16 08:14:19;;;;;;;;;;;;;;;;;;5094111;28;1206;-80
2022/01/16 08:16:45;;;;;;;;;;;;;;;;;;5083247;28;1249;-78
2022/01/16 08:19:10;;;;;;;;;;;;;;;;;;5086229;28;1286;-78
2022/01/16 08:21:36;;;;;;;;;;;;;;;;;;5103149;28;1203;-78
2022/01/16 08:24:03;;;;;;;;;;;;;;;;;;5101504;28;1961;-78
2022/01/16 08:26:30;;;;;;;;;;;;;;;;;;5107643;27;1168;-78
2022/01/16 08:28:55;;;;;;;;;;;;;;;;;;5108729;27;1274;-78
2022/01/16 08:31:23;;;;;;;;;;;;;;;;;;5127210;27;1001;-77
2022/01/16 08:33:49;;;;;;;;;;;;;;;;;;5087809;27;1288;-78
2022/01/16 08:36:14;;;;;;;;;;;;;;;;;;5110186;27;1144;-78
2022/01/16 08:38:39;;;;;;;;;;;;;;;;;;5123120;27;1207;-79
2022/01/16 08:41:04;;;;;;;;;;;;;;;;;;5090535;28;1222;-79
2022/01/16 08:43:30;;;;;;;;;;;;;;;;;;5103108;27;1971;-78
2022/01/16 08:45:56;;;;;;;;;;;;;;;;;;5103852;27;1258;-78
2022/01/16 08:48:27;;;;;;;;;;;;;;;;;;5108615;27;1182;-78
2022/01/16 08:50:53;;;;;;;;;;;;;;;;;;5091161;27;1358;-79
2022/01/16 08:53:18;;;;;;;;;;;;;;;;;;5090157;27;1188;-79
2022/01/16 08:55:46;;;;;;;;;;;;;;;;;;5090839;27;1178;-78
2022/01/16 08:58:11;;;;;;;;;;;;;;;;;;5108583;27;1261;-79
2022/01/16 09:00:53;;;;;;;;;;;;;;;;;;5072011;27;1156;-79
2022/01/16 09:03:27;;;;;;;;;;;;;;;;;;5105649;27;1894;-78
2022/01/16 09:05:53;;;;;;;;;;;;;;;;;;5106977;27;1017;-78
2022/01/16 09:08:19;;;;;;;;;;;;;;;;;;5107011;27;1227;-78
2022/01/16 09:10:44;;;;;;;;;;;;;;;;;;5105716;27;1131;-77
2022/01/16 09:13:15;;;;;;;;;;;;;;;;;;5091028;27;1344;-79
2022/01/16 09:15:47;;;;;;;;;;;;;;;;;;5089137;28;1399;-77
2022/01/16 09:18:13;;;;;;;;;;;;;;;;;;5104502;27;1144;-80
2022/01/16 09:20:47;;;;;;;;;;;;;;;;;;5081786;28;1170;-81
2022/01/16 09:23:13;;;;;;;;;;;;;;;;;;5077656;27;1968;-82
2022/01/16 09:25:47;;;;;;;;;;;;;;;;;;5108010;27;1314;-82
2022/01/16 09:28:12;;;;;;;;;;;;;;;;;;5105736;28;1211;-82
2022/01/16 09:30:42;;;;;;;;;;;;;;;;;;5105525;28;1203;-82
2022/01/16 09:33:07;;;;;;;;;;;;;;;;;;5086100;28;1427;-81
2022/01/16 09:35:33;;;;;;;;;;;;;;;;;;5090574;28;1140;-82
2022/01/16 09:37:59;;;;;;;;;;;;;;;;;;5102629;28;1202;-80
2022/01/16 09:40:25;;;;;;;;;;;;;;;;;;5105659;28;1287;-81
2022/01/16 09:42:53;;;;;;;;;;;;;;;;;;5104743;28;1906;-82
2022/01/16 09:45:19;;;;;;;;;;;;;;;;;;5089213;28;1226;-81
2022/01/16 09:47:46;;;;;;;;;;;;;;;;;;5084114;28;1076;-80
2022/01/16 09:50:13;;;;;;;;;;;;;;;;;;5097505;28;1198;-81
2022/01/16 09:52:46;;;;;;;;;;;;;;;;;;5106014;28;1233;-81
2022/01/16 09:55:11;;;;;;;;;;;;;;;;;;5098609;28;1221;-81
2022/01/16 09:57:37;;;;;;;;;;;;;;;;;;5069104;28;1351;-81
2022/01/16 10:00:04;;;;;;;;;;;;;;;;;;5102497;28;1227;-81
2022/01/16 10:02:29;;;;;;;;;;;;;;;;;;5084707;28;1886;-81
2022/01/16 10:04:54;;;;;;;;;;;;;;;;;;5093791;28;1128;-81
2022/01/16 10:07:20;;;;;;;;;;;;;;;;;;5085918;28;1124;-82
2022/01/16 10:10:04;;;;;;;;;;;;;;;;;;5066112;28;1254;-81
2022/01/16 10:12:29;;;;;;;;;;;;;;;;;;5096368;28;1447;-82
2022/01/16 10:14:56;;;;;;;;;;;;;;;;;;5086169;28;1211;-84
2022/01/16 10:17:23;;;;;;;;;;;;;;;;;;5106393;28;1274;-83
2022/01/16 10:20:04;;;;;;;;;;;;;;;;;;5092840;28;1278;-82
2022/01/16 10:22:40;;;;;;;;;;;;;;;;;;5087791;28;1893;-83
2022/01/16 10:25:07;;;;;;;;;;;;;;;;;;5088344;28;1139;-83
2022/01/16 10:27:40;;;;;;;;;;;;;;;;;;5095513;28;1393;-84
2022/01/16 10:30:07;;;;;;;;;;;;;;;;;;5102807;28;1162;-82
2022/01/16 10:32:35;;;;;;;;;;;;;;;;;;5104485;28;1445;-83
2022/01/16 10:35:08;;;;;;;;;;;;;;;;;;5098498;28;1288;-83
2022/01/16 10:37:34;;;;;;;;;;;;;;;;;;5096551;28;1183;-83
2022/01/16 10:39:59;;;;;;;;;;;;;;;;;;5103901;28;1190;-83
2022/01/16 10:42:25;;;;;;;;;;;;;;;;;;5099206;28;1906;-83
2022/01/16 10:45:04;;;;;;;;;;;;;;;;;;5081993;28;1172;-83
2022/01/16 10:47:33;;;;;;;;;;;;;;;;;;5083589;28;1182;-82
2022/01/16 10:50:09;;;;;;;;;;;;;;;;;;5078414;28;1366;-83
2022/01/16 10:52:48;;;;;;;;;;;;;;;;;;5083588;28;1297;-83
2022/01/16 10:55:14;;;;;;;;;;;;;;;;;;5082276;28;1322;-83
2022/01/16 10:57:40;;;;;;;;;;;;;;;;;;5100363;28;1303;-83
2022/01/16 11:00:12;;;;;;;;;;;;;;;;;;5101629;28;1302;-82
2022/01/16 11:02:38;;;;;;;;;;;;;;;;;;5103775;28;1956;-83
2022/01/16 11:05:04;;;;;;;;;;;;;;;;;;5098713;28;1171;-82
2022/01/16 11:07:29;;;;;;;;;;;;;;;;;;5100339;28;1202;-82
2022/01/16 11:09:55;;;;;;;;;;;;;;;;;;5064008;28;1296;-82
2022/01/16 11:12:23;;;;;;;;;;;;;;;;;;5082422;28;1215;-82
2022/01/16 11:14:49;;;;;;;;;;;;;;;;;;5081284;28;1199;-82
2022/01/16 11:17:15;;;;;;;;;;;;;;;;;;5092809;28;1406;-82
2022/01/16 11:19:40;;;;;;;;;;;;;;;;;;5099834;28;1138;-82
2022/01/16 11:22:10;;;;;;;;;;;;;;;;;;5084180;28;1192;-82
2022/01/16 11:24:47;;;;;;;;;;;;;;;;;;5101787;28;1254;-82
2022/01/16 11:27:16;;;;;;;;;;;;;;;;;;5099933;28;1486;-82
2022/01/16 11:29:42;;;;;;;;;;;;;;;;;;5094555;28;1416;-78
2022/01/16 11:32:08;;;;;;;;;;;;;;;;;;5089121;28;1174;-82
2022/01/16 11:34:35;;;;;;;;;;;;;;;;;;5083050;28;1407;-79
2022/01/16 11:37:01;;;;;;;;;;;;;;;;;;5094883;28;1170;-80
2022/01/16 11:39:33;;;;;;;;;;;;;;;;;;5076437;28;1444;-80
2022/01/16 11:41:59;;;;;;;;;;;;;;;;;;5081579;28;1246;-81
2022/01/16 11:44:28;;;;;;;;;;;;;;;;;;5088200;28;1969;-80
2022/01/16 11:46:58;;;;;;;;;;;;;;;;;;5100523;28;1234;-80
2022/01/16 11:49:37;;;;;;;;;;;;;;;;;;5083606;28;1314;-81
2022/01/16 11:52:07;;;;;;;;;;;;;;;;;;5094154;28;1143;-80
2022/01/16 11:54:33;;;;;;;;;;;;;;;;;;5081144;28;1185;-81
2022/01/16 11:57:07;;;;;;;;;;;;;;;;;;5078852;28;1307;-81
2022/01/16 11:59:33;;;;;;;;;;;;;;;;;;5081729;28;1311;-82
2022/01/16 12:01:59;;;;;;;;;;;;;;;;;;5082074;28;1211;-80
2022/01/16 12:04:31;;;;;;;;;;;;;;;;;;5088354;28;1945;-81
2022/01/16 12:07:19;;;;;;;;;;;;;;;;;;5084244;28;1171;-78
2022/01/16 12:12:13;;;;;;;;;;;;;;;;;;5091014;28;1056;-81
2022/01/16 12:14:50;;;;;;;;;;;;;;;;;;5105651;28;1277;-83
2022/01/16 12:17:28;;;;;;;;;;;;;;;;;;5092195;28;1282;-80
2022/01/16 12:20:17;;;;;;;;;;;;;;;;;;5104561;28;1262;-81
2022/01/16 12:22:44;;;;;;;;;;;;;;;;;;5075027;28;1886;-83
2022/01/16 12:25:20;;;;;;;;;;;;;;;;;;5085306;28;1195;-82
2022/01/16 12:27:48;;;;;;;;;;;;;;;;;;5093698;28;1317;-82
2022/01/16 12:30:21;;;;;;;;;;;;;;;;;;5097549;28;1333;-81
2022/01/16 12:33:13;;;;;;;;;;;;;;;;;;5095909;28;1409;-80
2022/01/16 12:35:38;;;;;;;;;;;;;;;;;;5094925;28;1042;-81
2022/01/16 12:38:08;;;;;;;;;;;;;;;;;;5091948;28;1137;-81
2022/01/16 12:40:33;;;;;;;;;;;;;;;;;;5104041;28;1179;-81
2022/01/16 12:43:10;;;;;;;;;;;;;;;;;;5105194;28;1918;-81
2022/01/16 12:45:39;;;;;;;;;;;;;;;;;;5097979;28;1198;-81
2022/01/16 12:48:05;;;;;;;;;;;;;;;;;;5098067;28;1201;-81
2022/01/16 12:50:30;;;;;;;;;;;;;;;;;;5105311;28;1180;-82
2022/01/16 12:52:55;;;;;;;;;;;;;;;;;;5107470;28;1268;-81
2022/01/16 12:55:31;;;;;;;;;;;;;;;;;;5072069;28;1426;-81
2022/01/16 12:58:20;;;;;;;;;;;;;;;;;;5104100;28;1288;-80
2022/01/16 13:01:04;;;;;;;;;;;;;;;;;;5083398;28;1188;-80
2022/01/16 13:03:35;;;;;;;;;;;;;;;;;;5083115;28;1957;-82
2022/01/16 13:06:34;;;;;;;;;;;;;;;;;;5084130;28;1305;-82
2022/01/16 13:09:07;;;;;;;;;;;;;;;;;;5050690;28;1398;-81
2022/01/16 13:11:32;;;;;;;;;;;;;;;;;;5091145;28;1171;-82
2022/01/16 13:14:07;;;;;;;;;;;;;;;;;;5088514;28;1294;-82
2022/01/16 13:16:40;;;;;;;;;;;;;;;;;;5100150;28;1203;-81
2022/01/16 13:19:18;;;;;;;;;;;;;;;;;;5099316;28;1440;-82
2022/01/16 13:24:30;;;;;;;;;;;;;;;;;;5106213;28;1901;-82
2022/01/16 13:26:56;;;;;;;;;;;;;;;;;;5103164;28;1252;-81
2022/01/16 13:29:22;;;;;;;;;;;;;;;;;;5098365;28;1347;-80
2022/01/16 13:31:48;;;;;;;;;;;;;;;;;;5101098;28;1262;-80
2022/01/16 13:34:14;;;;;;;;;;;;;;;;;;5099940;28;1207;-79
2022/01/16 13:36:53;;;;;;;;;;;;;;;;;;5102431;28;1119;-80
2022/01/16 13:39:37;;;;;;;;;;;;;;;;;;5093502;28;1266;-80
2022/01/16 13:42:12;;;;;;;;;;;;;;;;;;5086418;28;1135;-78
2022/01/16 13:44:37;;;;;;;;;;;;;;;;;;5095429;28;1914;-75
2022/01/16 13:47:07;;;;;;;;;;;;;;;;;;5102117;28;1195;-75
2022/01/16 13:49:32;;;;;;;;;;;;;;;;;;5103128;28;1215;-80
2022/01/16 13:52:02;;;;;;;;;;;;;;;;;;5105690;28;1163;-81
2022/01/16 13:54:31;;;;;;;;;;;;;;;;;;5092672;28;1350;-80
2022/01/16 13:56:57;;;;;;;;;;;;;;;;;;5086364;28;1214;-80
2022/01/16 13:59:22;;;;;;;;;;;;;;;;;;5082333;28;1317;-79
2022/01/16 14:01:52;;;;;;;;;;;;;;;;;;5070473;28;1286;-80
2022/01/16 14:04:17;;;;;;;;;;;;;;;;;;5101769;28;1889;-79
2022/01/16 14:06:47;;;;;;;;;;;;;;;;;;5083510;28;1303;-80
2022/01/16 14:09:13;;;;;;;;;;;;;;;;;;5092178;28;1236;-79
2022/01/16 14:11:40;;;;;;;;;;;;;;;;;;5084406;28;1175;-79
2022/01/16 14:14:14;;;;;;;;;;;;;;;;;;5082484;28;1288;-79
2022/01/16 14:16:52;;;;;;;;;;;;;;;;;;5102256;28;1044;-79
2022/01/16 14:19:20;;;;;;;;;;;;;;;;;;5098751;28;1171;-79
2022/01/16 14:24:37;;;;;;;;;;;;;;;;;;5083165;28;1957;-81
2022/01/16 14:27:10;;;;;;;;;;;;;;;;;;5077647;28;1202;-79
2022/01/16 14:29:37;;;;;;;;;;;;;;;;;;5080811;28;1143;-79
2022/01/16 14:32:03;;;;;;;;;;;;;;;;;;5093497;28;1257;-79
2022/01/16 14:34:28;;;;;;;;;;;;;;;;;;5089428;28;1132;-79
2022/01/16 14:36:54;;;;;;;;;;;;;;;;;;5082346;28;1316;-79
2022/01/16 14:39:22;;;;;;;;;;;;;;;;;;5086066;28;1305;-79
2022/01/16 14:41:49;;;;;;;;;;;;;;;;;;5103111;28;1214;-79
2022/01/16 14:44:16;;;;;;;;;;;;;;;;;;5101308;28;1897;-79
2022/01/16 14:46:41;;;;;;;;;;;;;;;;;;5099058;28;1309;-78
2022/01/16 14:49:13;;;;;;;;;;;;;;;;;;5098843;28;1354;-77
2022/01/16 14:51:38;;;;;;;;;;;;;;;;;;5102518;28;1179;-79
2022/01/16 14:54:04;;;;;;;;;;;;;;;;;;5066042;28;1345;-79
2022/01/16 14:56:29;;;;;;;;;;;;;;;;;;5080502;28;1186;-79
2022/01/16 14:58:54;;;;;;;;;;;;;;;;;;5064597;28;1361;-79
2022/01/16 15:01:23;;;;;;;;;;;;;;;;;;5063550;28;1267;-80
2022/01/16 15:03:48;;;;;;;;;;;;;;;;;;5089564;28;1949;-79
2022/01/16 15:06:13;;;;;;;;;;;;;;;;;;5079993;28;1287;-76
2022/01/16 15:08:40;;;;;;;;;;;;;;;;;;5082188;28;1354;-79
2022/01/16 15:11:06;;;;;;;;;;;;;;;;;;5081372;28;1682;-79
2022/01/16 15:13:34;;;;;;;;;;;;;;;;;;5080599;28;1037;-79
2022/01/16 15:16:00;;;;;;;;;;;;;;;;;;5079971;28;1243;-79
2022/01/16 15:18:28;;;;;;;;;;;;;;;;;;5080661;28;1187;-81
2022/01/16 15:20:56;;;;;;;;;;;;;;;;;;5105060;28;1033;-79
2022/01/16 15:23:21;;;;;;;;;;;;;;;;;;5100585;28;1951;-79
2022/01/16 15:25:47;;;;;;;;;;;;;;;;;;5105017;28;1147;-80
2022/01/16 15:28:24;;;;;;;;;;;;;;;;;;5103983;28;1256;-78
2022/01/16 15:30:58;;;;;;;;;;;;;;;;;;5097040;28;1313;-80
2022/01/16 15:33:27;;;;;;;;;;;;;;;;;;5099280;28;1178;-80
2022/01/16 15:35:53;;;;;;;;;;;;;;;;;;5087492;28;1304;-80
2022/01/16 15:38:27;;;;;;;;;;;;;;;;;;5088505;28;1433;-80
2022/01/16 15:40:52;;;;;;;;;;;;;;;;;;5085575;28;1307;-81
2022/01/16 15:43:20;;;;;;;;;;;;;;;;;;5087132;28;1912;-81
2022/01/16 15:45:49;;;;;;;;;;;;;;;;;;5086554;28;1349;-80
2022/01/16 15:48:28;;;;;;;;;;;;;;;;;;5084001;28;1319;-79
2022/01/16 15:50:53;;;;;;;;;;;;;;;;;;5090554;28;1324;-79
2022/01/16 15:53:22;;;;;;;;;;;;;;;;;;5089223;28;1208;-79
2022/01/16 15:55:47;;;;;;;;;;;;;;;;;;5107651;28;1159;-80
2022/01/16 15:58:13;;;;;;;;;;;;;;;;;;5093121;28;1270;-82
2022/01/16 16:00:39;;;;;;;;;;;;;;;;;;5073466;28;1207;-80
2022/01/16 16:03:05;;;;;;;;;;;;;;;;;;5083311;28;1891;-80
2022/01/16 16:05:30;;;;;;;;;;;;;;;;;;5073963;28;1419;-79
2022/01/16 16:07:56;;;;;;;;;;;;;;;;;;5086835;28;1383;-79
2022/01/16 16:10:21;;;;;;;;;;;;;;;;;;5086220;28;1155;-80
2022/01/16 16:12:47;;;;;;;;;;;;;;;;;;5086557;28;1323;-80
2022/01/16 16:15:21;;;;;;;;;;;;;;;;;;5087208;28;1219;-79
2022/01/16 16:17:46;;;;;;;;;;;;;;;;;;5088923;28;1187;-80
2022/01/16 16:20:12;;;;;;;;;;;;;;;;;;5085887;28;1128;-80
2022/01/16 16:22:37;;;;;;;;;;;;;;;;;;5085105;28;1894;-80
2022/01/16 16:25:03;;;;;;;;;;;;;;;;;;5069463;28;1243;-79
2022/01/16 16:27:29;;;;;;;;;;;;;;;;;;5082681;28;1168;-80
2022/01/16 16:29:55;;;;;;;;;;;;;;;;;;5086281;28;1276;-80
2022/01/16 16:32:27;;;;;;;;;;;;;;;;;;5081977;28;1242;-80
2022/01/16 16:34:52;;;;;;;;;;;;;;;;;;5076709;28;1351;-80
2022/01/16 16:37:21;;;;;;;;;;;;;;;;;;5087141;28;1155;-79
2022/01/16 16:39:48;;;;;;;;;;;;;;;;;;5095266;28;1154;-84
2022/01/16 16:42:15;;;;;;;;;;;;;;;;;;5100244;28;1130;-85
2022/01/16 16:44:43;;;;;;;;;;;;;;;;;;5070229;28;2036;-79
2022/01/16 16:47:08;;;;;;;;;;;;;;;;;;5077959;28;1238;-80
2022/01/16 16:49:34;;;;;;;;;;;;;;;;;;5076378;28;1304;-82
2022/01/16 16:52:00;;;;;;;;;;;;;;;;;;5091406;28;1450;-78
2022/01/16 16:54:25;;;;;;;;;;;;;;;;;;5097108;28;1305;-78
2022/01/16 16:56:51;;;;;;;;;;;;;;;;;;5102061;27;1064;-81
2022/01/16 16:59:16;;;;;;;;;;;;;;;;;;5083650;28;1223;-79
2022/01/16 17:01:41;;;;;;;;;;;;;;;;;;5079416;28;1104;-80
2022/01/16 17:04:07;;;;;;;;;;;;;;;;;;5086675;28;1929;-82
2022/01/16 17:06:32;;;;;;;;;;;;;;;;;;5096851;28;1171;-82
2022/01/16 17:08:58;;;;;;;;;;;;;;;;;;5101578;28;1296;-83
2022/01/16 17:11:27;;;;;;;;;;;;;;;;;;5087718;28;1163;-81
2022/01/16 17:13:53;;;;;;;;;;;;;;;;;;5077682;28;1394;-80
2022/01/16 17:16:19;;;;;;;;;;;;;;;;;;5086816;28;1155;-81
2022/01/16 17:18:48;;;;;;;;;;;;;;;;;;5086153;28;1194;-80
2022/01/16 17:21:14;;;;;;;;;;;;;;;;;;5099879;28;1201;-80
2022/01/16 17:23:39;;;;;;;;;;;;;;;;;;5096588;28;1925;-81
2022/01/16 17:26:07;;;;;;;;;;;;;;;;;;5080402;28;1284;-81
2022/01/16 17:28:36;;;;;;;;;;;;;;;;;;5078798;28;1233;-80
2022/01/16 17:31:01;;;;;;;;;;;;;;;;;;5089760;28;1301;-81
2022/01/16 17:33:29;;;;;;;;;;;;;;;;;;5100917;28;1206;-80
2022/01/16 17:35:55;;;;;;;;;;;;;;;;;;5100405;28;1146;-81
2022/01/16 17:38:21;;;;;;;;;;;;;;;;;;5077095;28;1550;-80
2022/01/16 17:40:46;;;;;;;;;;;;;;;;;;5075500;28;1200;-79
2022/01/16 17:43:12;;;;;;;;;;;;;;;;;;5064483;28;1993;-81
2022/01/16 17:45:37;;;;;;;;;;;;;;;;;;5094096;28;1077;-79
2022/01/16 17:48:05;;;;;;;;;;;;;;;;;;5060890;28;1306;-79
2022/01/16 17:50:31;;;;;;;;;;;;;;;;;;5101261;27;1170;-80
2022/01/16 17:52:56;;;;;;;;;;;;;;;;;;5080669;28;1259;-79